createdAt,value
2023-04-21T00:00:10.501Z,11.66
2023-04-21T00:02:58.225Z,11.63
2023-04-21T00:05:25.986Z,11.64
2023-04-21T00:07:53.613Z,11.56
2023-04-21T00:10:20.888Z,11.56
2023-04-21T00:12:48.434Z,11.56
2023-04-21T00:15:15.710Z,11.56
2023-04-21T00:17:43.510Z,11.48
2023-04-21T00:20:11.659Z,11.43
2023-04-21T00:22:39.186Z,11.33
2023-04-21T00:25:07.329Z,11.25
2023-04-21T00:27:34.915Z,11.24
2023-04-21T00:30:02.279Z,11.24
2023-04-21T00:32:29.873Z,11.24
2023-04-21T00:34:57.189Z,11.23
2023-04-21T00:37:24.827Z,11.26
2023-04-21T00:39:52.451Z,11.24
2023-04-21T00:42:20.053Z,11.25
2023-04-21T00:44:47.367Z,11.22
2023-04-21T00:47:14.875Z,11.23
2023-04-21T00:49:43.030Z,11.23
2023-04-21T00:52:11.572Z,11.19
2023-04-21T00:54:39.889Z,11.18
2023-04-21T00:57:08.121Z,11.17
2023-04-21T00:59:36.487Z,11.18
2023-04-21T01:02:04.651Z,11.13
2023-04-21T01:04:39.558Z,11.11
2023-04-21T01:07:08.052Z,11.01
2023-04-21T01:09:35.384Z,10.97
2023-04-21T01:12:12.103Z,10.87
2023-04-21T01:14:41.263Z,10.69
2023-04-21T01:17:09.347Z,10.60
2023-04-21T01:19:42.902Z,10.54
2023-04-21T01:22:12.836Z,10.51
2023-04-21T01:24:48.615Z,10.57
2023-04-21T01:27:19.865Z,10.65
2023-04-21T01:29:51.630Z,10.69
2023-04-21T01:32:25.956Z,10.62
2023-04-21T01:34:54.445Z,10.68
2023-04-21T01:37:28.080Z,10.58
2023-04-21T01:40:00.613Z,10.44
2023-04-21T01:42:30.391Z,10.44
2023-04-21T01:44:58.323Z,10.36
2023-04-21T01:47:26.707Z,10.27
2023-04-21T01:49:54.108Z,10.29
2023-04-21T01:52:22.021Z,10.33
2023-04-21T01:54:49.738Z,10.31
2023-04-21T01:57:17.940Z,10.44
2023-04-21T01:59:45.513Z,10.30
2023-04-21T02:02:13.097Z,10.18
2023-04-21T02:04:40.775Z,10.22
2023-04-21T02:07:08.364Z,10.30
2023-04-21T02:09:35.851Z,10.35
2023-04-21T02:12:03.918Z,10.36
2023-04-21T02:14:31.197Z,10.41
2023-04-21T02:16:58.803Z,10.47
2023-04-21T02:19:26.157Z,10.47
2023-04-21T02:21:53.653Z,10.56
2023-04-21T02:24:20.989Z,10.57
2023-04-21T02:26:48.517Z,10.61
2023-04-21T02:29:15.829Z,10.51
2023-04-21T02:31:54.649Z,10.56
2023-04-21T02:34:26.879Z,10.64
2023-04-21T02:36:54.718Z,10.67
2023-04-21T02:39:22.028Z,10.65
2023-04-21T02:41:49.607Z,10.62
2023-04-21T02:44:16.910Z,10.64
2023-04-21T02:46:44.517Z,10.66
2023-04-21T02:49:11.776Z,10.64
2023-04-21T02:51:39.430Z,10.67
2023-04-21T02:54:06.841Z,10.61
2023-04-21T02:56:34.750Z,10.50
2023-04-21T02:59:01.987Z,10.45
2023-04-21T03:01:29.624Z,10.41
2023-04-21T03:03:57.251Z,10.33
2023-04-21T03:06:25.046Z,10.31
2023-04-21T03:08:52.436Z,10.26
2023-04-21T03:11:19.982Z,10.21
2023-04-21T03:13:50.615Z,10.20
2023-04-21T03:16:18.212Z,10.12
2023-04-21T03:18:45.725Z,10.12
2023-04-21T03:21:13.347Z,10.13
2023-04-21T03:23:40.647Z,10.11
2023-04-21T03:26:09.108Z,10.07
2023-04-21T03:28:36.445Z,10.01
2023-04-21T03:31:04.278Z,10.03
2023-04-21T03:33:31.504Z,10.03
2023-04-21T03:36:01.069Z,10.04
2023-04-21T03:38:30.103Z,10.08
2023-04-21T03:40:57.623Z,10.10
2023-04-21T03:43:24.985Z,10.07
2023-04-21T03:45:52.578Z,10.12
2023-04-21T03:48:19.994Z,10.12
2023-04-21T03:50:47.586Z,10.15
2023-04-21T03:53:15.043Z,10.16
2023-04-21T03:55:42.573Z,10.18
2023-04-21T03:58:09.789Z,10.19
2023-04-21T04:00:37.378Z,10.21
2023-04-21T04:03:04.721Z,10.25
2023-04-21T04:05:32.273Z,10.22
2023-04-21T04:07:59.496Z,10.23
2023-04-21T04:10:27.049Z,10.23
2023-04-21T04:12:55.416Z,10.20
2023-04-21T04:15:22.996Z,10.20
2023-04-21T04:17:50.447Z,10.22
2023-04-21T04:20:18.216Z,10.20
2023-04-21T04:22:45.479Z,10.26
2023-04-21T04:25:15.076Z,10.32
2023-04-21T04:27:44.422Z,10.34
2023-04-21T04:30:13.455Z,10.40
2023-04-21T04:32:41.737Z,10.45
2023-04-21T04:35:10.241Z,10.48
2023-04-21T04:37:38.343Z,10.59
2023-04-21T04:40:10.286Z,10.61
2023-04-21T04:42:39.711Z,10.64
2023-04-21T04:45:08.680Z,10.69
2023-04-21T04:47:36.243Z,10.74
2023-04-21T04:50:05.979Z,10.82
2023-04-21T04:52:33.270Z,10.85
2023-04-21T04:55:00.858Z,10.82
2023-04-21T04:57:28.102Z,10.74
2023-04-21T04:59:56.334Z,10.71
2023-04-21T05:02:24.527Z,10.69
2023-04-21T05:04:52.415Z,10.67
2023-04-21T05:07:21.058Z,10.67
2023-04-21T05:09:49.053Z,10.68
2023-04-21T05:12:16.293Z,10.73
2023-04-21T05:14:44.027Z,10.75
2023-04-21T05:17:12.153Z,10.82
2023-04-21T05:19:40.981Z,10.94
2023-04-21T05:22:08.414Z,11.00
2023-04-21T05:24:36.132Z,11.13
2023-04-21T05:27:03.599Z,11.25
2023-04-21T05:29:31.487Z,11.35
2023-04-21T05:31:58.796Z,11.43
2023-04-21T05:34:26.280Z,11.54
2023-04-21T05:36:53.583Z,11.60
2023-04-21T05:39:21.147Z,11.72
2023-04-21T05:41:48.568Z,11.76
2023-04-21T05:44:19.646Z,11.82
2023-04-21T05:46:47.129Z,11.85
2023-04-21T05:49:14.659Z,12.00
2023-04-21T05:51:42.133Z,12.15
2023-04-21T05:54:09.763Z,12.21
2023-04-21T05:56:37.035Z,12.28
2023-04-21T05:59:07.074Z,12.40
2023-04-21T06:01:34.513Z,12.46
2023-04-21T06:04:02.262Z,12.64
2023-04-21T06:06:29.692Z,12.70
2023-04-21T06:08:57.589Z,12.86
2023-04-21T06:11:24.959Z,12.90
2023-04-21T06:13:58.474Z,13.01
2023-04-21T06:16:26.844Z,13.21
2023-04-21T06:18:54.472Z,13.37
2023-04-21T06:21:21.729Z,13.51
2023-04-21T06:23:49.273Z,13.59
2023-04-21T06:26:16.517Z,13.72
2023-04-21T06:28:44.078Z,13.83
2023-04-21T06:31:15.541Z,14.13
2023-04-21T06:33:43.343Z,14.94
2023-04-21T06:36:10.714Z,15.94
2023-04-21T06:38:40.078Z,16.63
2023-04-21T06:41:07.505Z,17.65
2023-04-21T06:43:35.819Z,17.95
2023-04-21T06:46:03.095Z,18.48
2023-04-21T06:48:30.953Z,19.75
2023-04-21T06:50:58.358Z,20.54
2023-04-21T06:53:25.911Z,21.37
2023-04-21T06:55:53.537Z,21.91
2023-04-21T06:58:21.556Z,22.30
2023-04-21T07:00:48.977Z,22.41
2023-04-21T07:03:16.640Z,21.85
2023-04-21T07:05:44.051Z,21.10
2023-04-21T07:08:11.564Z,20.80
2023-04-21T07:10:38.800Z,20.42
2023-04-21T07:13:08.792Z,19.90
2023-04-21T07:15:37.517Z,19.31
2023-04-21T07:18:05.236Z,19.26
2023-04-21T07:20:32.587Z,19.22
2023-04-21T07:23:00.158Z,19.24
2023-04-21T07:25:27.477Z,19.27
2023-04-21T07:27:55.071Z,19.01
2023-04-21T07:30:22.529Z,19.06
2023-04-21T07:32:50.278Z,19.12
2023-04-21T07:35:17.818Z,19.07
2023-04-21T07:37:45.963Z,18.95
2023-04-21T07:40:13.874Z,18.59
2023-04-21T07:42:41.439Z,19.03
2023-04-21T07:45:09.646Z,19.18
2023-04-21T07:47:37.336Z,19.10
2023-04-21T07:50:06.098Z,19.15
2023-04-21T07:52:33.665Z,19.09
2023-04-21T07:55:00.916Z,19.36
2023-04-21T07:57:28.461Z,19.37
2023-04-21T07:59:55.773Z,19.43
2023-04-21T08:02:23.765Z,19.39
2023-04-21T08:04:51.358Z,19.82
2023-04-21T08:07:19.066Z,20.22
2023-04-21T08:09:47.907Z,20.42
2023-04-21T08:12:15.760Z,20.52
2023-04-21T08:14:43.114Z,21.22
2023-04-21T08:17:10.949Z,21.44
2023-04-21T08:19:38.213Z,22.30
2023-04-21T08:22:05.824Z,22.81
2023-04-21T08:24:33.129Z,23.68
2023-04-21T08:27:02.362Z,24.42
2023-04-21T08:29:29.728Z,24.99
2023-04-21T08:31:57.434Z,26.18
2023-04-21T08:34:27.178Z,27.02
2023-04-21T08:36:55.285Z,27.57
2023-04-21T08:39:22.716Z,29.06
2023-04-21T08:41:51.136Z,30.52
2023-04-21T08:44:19.620Z,31.62
2023-04-21T08:46:53.160Z,34.22
2023-04-21T08:49:21.911Z,29.21
2023-04-21T08:51:49.835Z,33.44
2023-04-21T08:54:17.144Z,36.02
2023-04-21T08:56:44.673Z,38.53
2023-04-21T08:59:11.954Z,41.05
2023-04-21T09:02:19.112Z,44.42
2023-04-21T09:04:55.020Z,43.02
2023-04-21T09:07:39.381Z,38.48
2023-04-21T09:10:11.182Z,34.49
2023-04-21T09:12:43.403Z,32.56
2023-04-21T09:15:12.936Z,35.35
2023-04-21T09:17:40.655Z,36.50
2023-04-21T09:20:20.668Z,30.76
2023-04-21T09:22:52.218Z,34.05
2023-04-21T09:25:23.319Z,31.37
2023-04-21T09:27:51.285Z,28.45
2023-04-21T09:30:20.606Z,27.42
2023-04-21T09:32:48.460Z,26.43
2023-04-21T09:35:16.190Z,26.61
2023-04-21T09:37:44.662Z,26.60
2023-04-21T09:40:18.564Z,29.20
2023-04-21T09:42:47.006Z,34.20
2023-04-21T09:47:54.646Z,47.92
2023-04-21T09:50:44.764Z,51.71
2023-04-21T09:53:17.533Z,55.40
2023-04-21T09:55:50.343Z,56.49
2023-04-21T09:58:24.658Z,55.92
2023-04-21T10:00:55.974Z,55.81
2023-04-21T10:03:28.931Z,59.56
2023-04-21T10:05:56.612Z,49.79
2023-04-21T10:08:24.206Z,41.84
2023-04-21T10:10:53.076Z,36.90
2023-04-21T10:13:22.248Z,35.62
2023-04-21T10:15:49.607Z,32.33
2023-04-21T10:18:20.402Z,29.11
2023-04-21T10:21:09.927Z,30.15
2023-04-21T10:23:53.100Z,30.41
2023-04-21T10:26:34.902Z,29.48
2023-04-21T10:29:07.268Z,33.36
2023-04-21T10:31:51.904Z,40.96
2023-04-21T10:34:40.762Z,47.01
2023-04-21T10:37:12.650Z,48.18
2023-04-21T10:39:53.728Z,54.54
2023-04-21T10:42:27.494Z,55.63
2023-04-21T10:44:57.798Z,43.90
2023-04-21T10:47:49.299Z,38.24
2023-04-21T10:50:21.774Z,50.30
2023-04-21T10:52:57.916Z,45.78
2023-04-21T10:55:30.592Z,48.69
2023-04-21T10:58:04.680Z,51.30
2023-04-21T11:00:33.327Z,52.94
2023-04-21T11:03:07.358Z,53.53
2023-04-21T11:05:41.682Z,48.21
2023-04-21T11:08:15.939Z,40.95
2023-04-21T11:10:57.082Z,37.78
2023-04-21T11:13:29.166Z,36.02
2023-04-21T11:15:57.626Z,41.48
2023-04-21T11:18:56.972Z,44.51
2023-04-21T11:21:24.919Z,39.72
2023-04-21T11:23:57.778Z,33.78
2023-04-21T11:26:40.146Z,32.03
2023-04-21T11:29:09.832Z,31.19
2023-04-21T11:31:40.048Z,30.85
2023-04-21T11:34:08.488Z,34.40
2023-04-21T11:36:39.147Z,38.26
2023-04-21T11:39:12.289Z,33.70
2023-04-21T11:41:45.749Z,34.89
2023-04-21T11:44:29.918Z,35.45
2023-04-21T11:46:57.572Z,34.64
2023-04-21T11:49:29.588Z,32.27
2023-04-21T11:51:57.309Z,31.82
2023-04-21T11:54:24.838Z,31.99
2023-04-21T11:56:54.655Z,30.47
2023-04-21T11:59:26.427Z,31.38
2023-04-21T12:01:55.479Z,32.58
2023-04-21T12:04:25.522Z,33.56
2023-04-21T12:07:03.365Z,29.95
2023-04-21T12:09:30.856Z,29.14
2023-04-21T12:11:59.744Z,27.82
2023-04-21T12:14:27.154Z,27.55
2023-04-21T12:16:57.818Z,27.58
2023-04-21T12:19:40.291Z,27.70
2023-04-21T12:22:11.102Z,27.84
2023-04-21T12:24:39.225Z,27.93
2023-04-21T12:27:08.101Z,28.40
2023-04-21T12:29:37.514Z,28.90
2023-04-21T12:32:06.784Z,28.85
2023-04-21T12:34:34.669Z,28.62
2023-04-21T12:37:02.570Z,28.96
2023-04-21T12:39:30.713Z,29.24
2023-04-21T12:41:58.647Z,29.40
2023-04-21T12:44:26.441Z,29.67
2023-04-21T12:46:54.751Z,29.24
2023-04-21T12:49:21.974Z,28.67
2023-04-21T12:51:50.116Z,27.77
2023-04-21T12:54:18.212Z,27.35
2023-04-21T12:56:46.083Z,26.92
2023-04-21T12:59:13.353Z,26.22
2023-04-21T13:01:42.841Z,25.67
2023-04-21T13:04:10.614Z,26.20
2023-04-21T13:06:39.547Z,26.61
2023-04-21T13:09:08.221Z,26.63
2023-04-21T13:11:35.907Z,26.43
2023-04-21T13:14:04.253Z,26.59
2023-04-21T13:16:32.065Z,26.35
2023-04-21T13:18:59.546Z,25.82
2023-04-21T13:21:27.920Z,25.50
2023-04-21T13:23:56.282Z,25.43
2023-04-21T13:26:24.412Z,25.54
2023-04-21T13:28:51.923Z,25.61
2023-04-21T13:31:19.485Z,25.43
2023-04-21T13:33:46.795Z,25.07
2023-04-21T13:36:14.420Z,25.19
2023-04-21T13:38:42.406Z,24.95
2023-04-21T13:41:10.065Z,25.95
2023-04-21T13:43:37.536Z,26.07
2023-04-21T13:46:05.736Z,26.34
2023-04-21T13:48:33.025Z,26.11
2023-04-21T13:51:00.984Z,25.93
2023-04-21T13:53:28.227Z,25.99
2023-04-21T13:55:57.260Z,26.29
2023-04-21T13:58:24.520Z,26.75
2023-04-21T14:00:52.123Z,26.63
2023-04-21T14:03:19.659Z,27.04
2023-04-21T14:05:47.765Z,27.62
2023-04-21T14:08:15.309Z,28.10
2023-04-21T14:10:42.877Z,28.62
2023-04-21T14:13:17.334Z,29.00
2023-04-21T14:15:56.097Z,28.98
2023-04-21T14:18:24.335Z,27.60
2023-04-21T14:20:52.105Z,27.07
2023-04-21T14:23:19.375Z,26.72
2023-04-21T14:25:46.865Z,26.16
2023-04-21T14:28:14.831Z,26.02
2023-04-21T14:30:43.383Z,25.64
2023-04-21T14:33:10.790Z,25.91
2023-04-21T14:35:38.469Z,26.08
2023-04-21T14:38:05.806Z,26.14
2023-04-21T14:40:33.370Z,26.21
2023-04-21T14:43:00.793Z,26.23
2023-04-21T14:45:28.491Z,26.20
2023-04-21T14:47:55.909Z,26.08
2023-04-21T14:50:23.565Z,25.99
2023-04-21T14:52:50.941Z,25.65
2023-04-21T14:55:18.760Z,24.98
2023-04-21T14:57:47.157Z,24.57
2023-04-21T15:00:15.223Z,24.10
2023-04-21T15:02:42.648Z,23.98
2023-04-21T15:05:10.798Z,23.64
2023-04-21T15:07:40.536Z,23.54
2023-04-21T15:10:09.342Z,23.18
2023-04-21T15:12:37.272Z,23.10
2023-04-21T15:15:06.738Z,23.07
2023-04-21T15:17:34.044Z,23.12
2023-04-21T15:20:01.633Z,23.08
2023-04-21T15:22:29.089Z,22.99
2023-04-21T15:24:57.557Z,23.01
2023-04-21T15:27:24.837Z,23.10
2023-04-21T15:29:52.837Z,23.32
2023-04-21T15:32:20.635Z,23.40
2023-04-21T15:34:49.202Z,23.58
2023-04-21T15:37:17.660Z,23.68
2023-04-21T15:39:45.201Z,23.71
2023-04-21T15:42:12.500Z,23.56
2023-04-21T15:44:40.157Z,23.62
2023-04-21T15:47:08.600Z,23.48
2023-04-21T15:49:36.298Z,23.38
2023-04-21T15:52:04.973Z,23.43
2023-04-21T15:54:34.300Z,23.46
2023-04-21T15:57:02.329Z,23.40
2023-04-21T15:59:29.903Z,23.51
2023-04-21T16:01:57.779Z,23.56
2023-04-21T16:04:25.966Z,23.49
2023-04-21T16:06:53.266Z,23.27
2023-04-21T16:09:21.723Z,23.34
2023-04-21T16:11:52.301Z,23.00
2023-04-21T16:14:20.125Z,22.81
2023-04-21T16:16:47.518Z,22.63
2023-04-21T16:19:16.489Z,22.66
2023-04-21T16:21:44.127Z,22.50
2023-04-21T16:24:12.283Z,22.40
2023-04-21T16:26:39.659Z,22.07
2023-04-21T16:29:07.611Z,22.12
2023-04-21T16:31:34.930Z,21.72
2023-04-21T16:34:02.839Z,21.83
2023-04-21T16:36:31.348Z,21.94
2023-04-21T16:38:59.530Z,22.05
2023-04-21T16:41:26.987Z,22.00
2023-04-21T16:43:54.665Z,21.79
2023-04-21T16:46:22.438Z,21.86
2023-04-21T16:48:50.071Z,21.68
2023-04-21T16:51:17.836Z,21.49
2023-04-21T16:53:45.906Z,20.94
2023-04-21T16:56:14.852Z,20.88
2023-04-21T16:58:42.472Z,21.10
2023-04-21T17:01:09.741Z,20.86
2023-04-21T17:03:37.475Z,20.75
2023-04-21T17:06:09.545Z,20.76
2023-04-21T17:08:37.769Z,20.51
2023-04-21T17:11:05.188Z,20.47
2023-04-21T17:13:34.700Z,20.39
2023-04-21T17:16:01.993Z,20.28
2023-04-21T17:18:29.919Z,20.32
2023-04-21T17:20:57.340Z,20.40
2023-04-21T17:23:24.967Z,20.47
2023-04-21T17:25:52.303Z,20.30
2023-04-21T17:28:19.839Z,20.10
2023-04-21T17:30:47.195Z,19.97
2023-04-21T17:33:17.379Z,19.76
2023-04-21T17:35:59.947Z,19.55
2023-04-21T17:38:30.371Z,19.42
2023-04-21T17:40:58.135Z,19.21
2023-04-21T17:43:25.745Z,19.05
2023-04-21T17:45:53.132Z,18.89
2023-04-21T17:48:21.389Z,18.82
2023-04-21T17:50:48.776Z,18.65
2023-04-21T17:53:17.440Z,18.58
2023-04-21T17:55:45.059Z,18.35
2023-04-21T17:58:12.789Z,18.31
2023-04-21T18:00:40.908Z,18.24
2023-04-21T18:03:08.730Z,18.09
2023-04-21T18:05:36.337Z,17.96
2023-04-21T18:08:04.279Z,17.82
2023-04-21T18:10:31.629Z,17.72
2023-04-21T18:12:59.246Z,17.58
2023-04-21T18:15:26.890Z,17.48
2023-04-21T18:17:59.514Z,17.41
2023-04-21T18:20:27.029Z,17.32
2023-04-21T18:22:54.746Z,17.16
2023-04-21T18:25:34.347Z,17.06
2023-04-21T18:28:08.920Z,17.02
2023-04-21T18:30:36.242Z,17.05
2023-04-21T18:33:04.039Z,17.00
2023-04-21T18:35:33.314Z,16.95
2023-04-21T18:38:01.311Z,16.90
2023-04-21T18:40:29.276Z,16.85
2023-04-21T18:42:57.206Z,16.71
2023-04-21T18:45:24.565Z,16.67
2023-04-21T18:47:52.256Z,16.57
2023-04-21T18:50:19.724Z,16.51
2023-04-21T18:52:47.351Z,16.48
2023-04-21T18:55:15.573Z,16.37
2023-04-21T18:57:43.202Z,16.30
2023-04-21T19:00:11.488Z,16.27
2023-04-21T19:02:39.843Z,16.18
2023-04-21T19:05:07.874Z,16.08
2023-04-21T19:07:36.054Z,16.05
2023-04-21T19:10:03.557Z,16.04
2023-04-21T19:12:31.758Z,16.02
2023-04-21T19:15:01.495Z,16.04
2023-04-21T19:17:29.142Z,16.00
2023-04-21T19:19:56.596Z,15.97
2023-04-21T19:22:25.385Z,15.98
2023-04-21T19:24:56.115Z,15.97
2023-04-21T19:27:24.138Z,15.97
2023-04-21T19:29:51.572Z,15.99
2023-04-21T19:32:19.426Z,15.96
2023-04-21T19:34:46.820Z,15.92
2023-04-21T19:37:14.849Z,15.87
2023-04-21T19:39:42.201Z,15.85
2023-04-21T19:42:09.879Z,15.81
2023-04-21T19:44:39.539Z,15.81
2023-04-21T19:47:07.554Z,15.78
2023-04-21T19:49:34.829Z,15.73
2023-04-21T19:52:02.409Z,15.68
2023-04-21T19:54:29.778Z,15.63
2023-04-21T19:56:57.362Z,15.53
2023-04-21T19:59:24.785Z,15.46
2023-04-21T20:01:52.364Z,15.43
2023-04-21T20:04:19.862Z,15.39
2023-04-21T20:06:47.537Z,15.28
2023-04-21T20:09:14.894Z,15.12
2023-04-21T20:11:42.540Z,15.10
2023-04-21T20:14:09.874Z,15.09
2023-04-21T20:16:37.950Z,15.08
2023-04-21T20:19:05.251Z,14.96
2023-04-21T20:21:33.369Z,14.98
2023-04-21T20:24:00.981Z,14.88
2023-04-21T20:26:29.133Z,14.87
2023-04-21T20:28:56.515Z,14.81
2023-04-21T20:31:25.542Z,14.74
2023-04-21T20:33:53.070Z,14.79
2023-04-21T20:36:22.242Z,14.74
2023-04-21T20:38:49.693Z,14.73
2023-04-21T20:41:17.511Z,14.62
2023-04-21T20:43:45.518Z,14.55
2023-04-21T20:46:13.802Z,14.51
2023-04-21T20:48:41.291Z,14.46
2023-04-21T20:51:08.862Z,14.50
2023-04-21T20:53:36.170Z,14.46
2023-04-21T20:56:03.743Z,14.42
2023-04-21T20:58:31.235Z,14.42
2023-04-21T21:00:58.826Z,14.43
2023-04-21T21:03:26.685Z,14.47
2023-04-21T21:05:55.096Z,14.46
2023-04-21T21:08:22.652Z,14.36
2023-04-21T21:10:50.359Z,14.28
2023-04-21T21:13:17.672Z,14.32
2023-04-21T21:15:46.849Z,14.29
2023-04-21T21:18:14.151Z,14.26
2023-04-21T21:20:41.771Z,14.27
2023-04-21T21:23:09.227Z,14.23
2023-04-21T21:25:36.842Z,14.18
2023-04-21T21:28:04.325Z,14.09
2023-04-21T21:30:31.881Z,14.04
2023-04-21T21:32:59.282Z,13.98
2023-04-21T21:35:27.164Z,13.98
2023-04-21T21:37:54.805Z,13.96
2023-04-21T21:40:22.488Z,13.98
2023-04-21T21:42:49.841Z,13.96
2023-04-21T21:45:17.649Z,13.96
2023-04-21T21:47:45.893Z,13.96
2023-04-21T21:50:13.742Z,13.90
2023-04-21T21:52:41.163Z,13.83
2023-04-21T21:55:09.291Z,13.78
2023-04-21T21:57:37.106Z,13.70
2023-04-21T22:00:08.869Z,13.72
2023-04-21T22:02:36.441Z,13.62
2023-04-21T22:05:07.172Z,13.57
2023-04-21T22:07:35.551Z,13.53
2023-04-21T22:10:04.149Z,13.57
2023-04-21T22:12:34.496Z,13.51
2023-04-21T22:15:02.130Z,13.41
2023-04-21T22:17:29.822Z,13.40
2023-04-21T22:19:57.857Z,13.33
2023-04-21T22:22:25.224Z,13.35
2023-04-21T22:24:53.042Z,13.29
2023-04-21T22:27:20.731Z,13.28
2023-04-21T22:29:48.237Z,13.24
2023-04-21T22:32:15.635Z,13.29
2023-04-21T22:34:43.259Z,13.27
2023-04-21T22:37:10.613Z,13.26
2023-04-21T22:39:39.132Z,13.22
2023-04-21T22:42:06.968Z,13.17
2023-04-21T22:44:34.605Z,13.06
2023-04-21T22:47:01.875Z,13.12
2023-04-21T22:49:29.417Z,13.10
2023-04-21T22:51:56.664Z,13.06
2023-04-21T22:54:24.246Z,13.05
2023-04-21T22:56:51.789Z,13.05
2023-04-21T22:59:19.293Z,13.01
2023-04-21T23:01:46.539Z,12.98
2023-04-21T23:04:14.292Z,12.95
2023-04-21T23:06:41.647Z,12.94
2023-04-21T23:09:09.210Z,12.94
2023-04-21T23:11:36.569Z,12.98
2023-04-21T23:14:04.173Z,13.00
2023-04-21T23:16:31.981Z,12.96
2023-04-21T23:18:59.587Z,12.86
2023-04-21T23:21:26.879Z,12.86
2023-04-21T23:23:54.400Z,12.81
2023-04-21T23:26:21.875Z,12.66
2023-04-21T23:28:49.443Z,12.59
2023-04-21T23:31:16.833Z,12.56
2023-04-21T23:33:44.576Z,12.59
2023-04-21T23:36:12.062Z,12.61
2023-04-21T23:38:39.596Z,12.54
2023-04-21T23:41:06.880Z,12.49
2023-04-21T23:43:37.192Z,12.49
2023-04-21T23:46:04.763Z,12.52
2023-04-21T23:48:32.438Z,12.48
2023-04-21T23:51:03.717Z,12.42
2023-04-21T23:53:31.502Z,12.39
2023-04-21T23:55:58.857Z,12.33
2023-04-21T23:58:26.458Z,12.35
